createdAt,value
2022-09-10T00:01:26.980Z,100348.78
2022-09-10T00:03:56.688Z,100352.06
2022-09-10T00:06:27.863Z,100343.78
2022-09-10T00:08:58.563Z,100346.13
2022-09-10T00:11:32.812Z,100341.16
2022-09-10T00:14:02.634Z,100333.34
2022-09-10T00:16:32.305Z,100330.00
2022-09-10T00:19:04.406Z,100320.88
2022-09-10T00:21:35.778Z,100323.53
2022-09-10T00:24:05.656Z,100323.53
2022-09-10T00:26:38.354Z,100316.38
2022-09-10T00:29:09.154Z,100314.88
2022-09-10T00:31:37.845Z,100315.56
2022-09-10T00:34:07.413Z,100308.56
2022-09-10T00:36:39.879Z,100309.25
2022-09-10T00:39:10.126Z,100308.09
2022-09-10T00:41:40.562Z,100309.56
2022-09-10T00:44:48.293Z,100315.19
2022-09-10T00:47:19.088Z,100312.84
2022-09-10T00:49:51.002Z,100320.47
2022-09-10T00:52:21.276Z,100318.97
2022-09-10T00:54:50.122Z,100322.66
2022-09-10T00:57:22.018Z,100322.19
2022-09-10T00:59:53.540Z,100311.25
2022-09-10T01:02:22.848Z,100318.91
2022-09-10T01:04:51.859Z,100315.09
2022-09-10T01:07:24.223Z,100309.47
2022-09-10T01:09:53.136Z,100310.31
2022-09-10T01:12:36.095Z,100295.84
2022-09-10T01:15:17.001Z,100287.97
2022-09-10T01:17:58.430Z,100294.47
2022-09-10T01:20:47.726Z,100286.19
2022-09-10T01:23:45.369Z,100285.56
2022-09-10T01:26:21.829Z,100287.09
2022-09-10T01:28:56.537Z,100290.44
2022-09-10T01:31:31.398Z,100286.94
2022-09-10T01:34:04.538Z,100285.94
2022-09-10T01:36:36.884Z,100279.50
2022-09-10T01:39:05.869Z,100281.47
2022-09-10T01:41:34.804Z,100272.34
2022-09-10T01:44:11.083Z,100271.03
2022-09-10T01:46:48.517Z,100267.41
2022-09-10T01:49:26.372Z,100268.06
2022-09-10T01:52:10.615Z,100263.44
2022-09-10T01:54:48.394Z,100262.44
2022-09-10T01:57:27.973Z,100256.59
2022-09-10T02:00:07.324Z,100264.09
2022-09-10T02:02:45.695Z,100263.75
2022-09-10T02:05:21.141Z,100271.72
2022-09-10T02:07:55.386Z,100258.44
2022-09-10T02:10:24.197Z,100253.81
2022-09-10T02:12:53.022Z,100257.28
2022-09-10T02:15:39.291Z,100253.63
2022-09-10T02:18:18.218Z,100245.84
2022-09-10T02:20:47.529Z,100252.59
2022-09-10T02:23:19.594Z,100245.97
2022-09-10T02:25:49.264Z,100249.44
2022-09-10T02:28:18.125Z,100241.97
2022-09-10T02:30:48.887Z,100240.97
2022-09-10T02:33:18.574Z,100234.69
2022-09-10T02:35:47.964Z,100241.78
2022-09-10T02:38:18.284Z,100240.66
2022-09-10T02:40:49.210Z,100240.81
2022-09-10T02:43:18.562Z,100239.81
2022-09-10T02:45:48.900Z,100232.03
2022-09-10T02:48:18.397Z,100232.16
2022-09-10T02:50:47.372Z,100229.69
2022-09-10T02:53:16.084Z,100226.19
2022-09-10T02:55:46.284Z,100224.34
2022-09-10T02:58:16.283Z,100227.31
2022-09-10T03:00:48.950Z,100224.16
2022-09-10T03:03:19.026Z,100222.31
2022-09-10T03:05:48.044Z,100224.81
2022-09-10T03:08:16.748Z,100221.00
2022-09-10T03:10:46.987Z,100219.84
2022-09-10T03:13:15.669Z,100225.16
2022-09-10T03:15:45.783Z,100221.13
2022-09-10T03:18:16.899Z,100218.50
2022-09-10T03:20:46.592Z,100223.28
2022-09-10T03:23:15.687Z,100229.91
2022-09-10T03:25:47.911Z,100229.53
2022-09-10T03:28:20.228Z,100234.03
2022-09-10T03:30:49.528Z,100231.69
2022-09-10T03:33:21.860Z,100242.44
2022-09-10T03:35:52.435Z,100232.63
2022-09-10T03:38:21.368Z,100230.50
2022-09-10T03:40:49.777Z,100230.50
2022-09-10T03:43:19.966Z,100229.00
2022-09-10T03:45:49.375Z,100231.75
2022-09-10T03:48:20.892Z,100235.09
2022-09-10T03:50:51.017Z,100241.38
2022-09-10T03:53:21.878Z,100238.84
2022-09-10T03:55:54.019Z,100237.84
2022-09-10T03:58:23.196Z,100245.88
2022-09-10T04:00:53.228Z,100241.53
2022-09-10T04:03:23.394Z,100251.66
2022-09-10T04:05:53.657Z,100244.22
2022-09-10T04:08:22.567Z,100239.16
2022-09-10T04:10:52.220Z,100237.50
2022-09-10T04:13:21.103Z,100243.19
2022-09-10T04:15:50.015Z,100241.00
2022-09-10T04:18:19.092Z,100239.53
2022-09-10T04:20:49.999Z,100229.63
2022-09-10T04:23:18.606Z,100223.63
2022-09-10T04:25:47.665Z,100221.66
2022-09-10T04:28:16.426Z,100215.34
2022-09-10T04:30:48.191Z,100212.03
2022-09-10T04:33:17.149Z,100210.69
2022-09-10T04:35:46.168Z,100203.56
2022-09-10T04:38:16.960Z,100202.56
2022-09-10T04:40:47.716Z,100200.22
2022-09-10T04:43:17.520Z,100194.94
2022-09-10T04:45:46.439Z,100180.81
2022-09-10T04:48:15.217Z,100185.34
2022-09-10T04:51:05.348Z,100188.78
2022-09-10T04:53:40.670Z,100192.34
2022-09-10T04:56:09.751Z,100197.34
2022-09-10T04:58:40.134Z,100196.47
2022-09-10T05:01:09.593Z,100191.84
2022-09-10T05:03:38.825Z,100187.72
2022-09-10T05:06:08.921Z,100168.53
2022-09-10T05:08:37.815Z,100158.66
2022-09-10T05:11:08.407Z,100162.50
2022-09-10T05:13:36.913Z,100159.38
2022-09-10T05:16:07.866Z,100172.28
2022-09-10T05:18:37.001Z,100167.34
2022-09-10T05:21:06.792Z,100168.00
2022-09-10T05:23:36.340Z,100178.31
2022-09-10T05:26:04.979Z,100178.97
2022-09-10T05:28:35.452Z,100182.31
2022-09-10T05:31:09.788Z,100190.63
2022-09-10T05:33:40.836Z,100183.97
2022-09-10T05:36:12.289Z,100187.31
2022-09-10T05:38:42.715Z,100183.97
2022-09-10T05:41:12.099Z,100187.44
2022-09-10T05:43:46.471Z,100173.34
2022-09-10T05:46:15.422Z,100174.88
2022-09-10T05:48:47.703Z,100172.94
2022-09-10T05:51:17.424Z,100161.00
2022-09-10T05:53:46.187Z,100162.31
2022-09-10T05:56:17.420Z,100162.31
2022-09-10T05:58:48.173Z,100158.66
2022-09-10T06:01:16.703Z,100159.88
2022-09-10T06:03:46.012Z,100165.53
2022-09-10T06:06:15.470Z,100166.53
2022-09-10T06:08:52.498Z,100160.88
2022-09-10T06:11:29.021Z,100154.25
2022-09-10T06:13:59.220Z,100155.41
2022-09-10T06:16:28.626Z,100152.09
2022-09-10T06:18:59.762Z,100155.25
2022-09-10T06:21:29.521Z,100153.44
2022-09-10T06:23:59.622Z,100154.56
2022-09-10T06:26:32.243Z,100144.63
2022-09-10T06:29:07.335Z,100145.63
2022-09-10T06:31:36.309Z,100149.31
2022-09-10T06:34:05.669Z,100143.34
2022-09-10T06:36:35.282Z,100137.19
2022-09-10T06:39:04.071Z,100138.19
2022-09-10T06:41:45.820Z,100135.53
2022-09-10T06:44:30.483Z,100115.09
2022-09-10T06:47:50.858Z,100126.22
2022-09-10T06:50:01.965Z,100121.41
2022-09-10T06:52:33.784Z,100123.22
2022-09-10T06:55:06.786Z,100124.88
2022-09-10T06:57:40.717Z,100118.41
2022-09-10T07:00:14.352Z,100130.72
2022-09-10T07:02:45.994Z,100124.41
2022-09-10T07:05:14.762Z,100130.56
2022-09-10T07:07:44.178Z,100131.38
2022-09-10T07:10:14.755Z,100125.91
2022-09-10T07:12:44.850Z,100131.75
2022-09-10T07:15:15.364Z,100131.72
2022-09-10T07:17:44.082Z,100138.03
2022-09-10T07:20:13.163Z,100147.66
2022-09-10T07:22:49.399Z,100152.13
2022-09-10T07:25:21.448Z,100158.47
2022-09-10T07:27:55.643Z,100161.94
2022-09-10T07:30:27.374Z,100167.59
2022-09-10T07:32:57.144Z,100171.41
2022-09-10T07:35:29.321Z,100161.63
2022-09-10T07:37:58.174Z,100162.13
2022-09-10T07:40:27.818Z,100155.63
2022-09-10T07:42:56.949Z,100152.50
2022-09-10T07:45:28.284Z,100155.81
2022-09-10T07:47:57.102Z,100150.94
2022-09-10T07:50:25.921Z,100164.44
2022-09-10T07:52:55.631Z,100174.47
2022-09-10T07:55:26.607Z,100175.13
2022-09-10T07:57:59.559Z,100171.34
2022-09-10T08:00:31.957Z,100176.16
2022-09-10T08:03:06.975Z,100173.34
2022-09-10T08:05:38.245Z,100178.13
2022-09-10T08:08:07.738Z,100173.94
2022-09-10T08:10:36.799Z,100176.47
2022-09-10T08:13:05.546Z,100168.72
2022-09-10T08:15:36.198Z,100169.28
2022-09-10T08:18:05.734Z,100169.59
2022-09-10T08:20:34.592Z,100169.41
2022-09-10T08:23:03.499Z,100157.97
2022-09-10T08:25:33.460Z,100159.13
2022-09-10T08:28:02.924Z,100162.28
2022-09-10T08:30:33.134Z,100165.75
2022-09-10T08:33:03.615Z,100154.97
2022-09-10T08:35:35.017Z,100158.16
2022-09-10T08:38:03.955Z,100165.94
2022-09-10T08:40:33.503Z,100170.75
2022-09-10T08:43:02.654Z,100157.47
2022-09-10T08:45:33.705Z,100152.28
2022-09-10T08:48:09.410Z,100153.72
2022-09-10T08:50:42.576Z,100157.22
2022-09-10T08:53:26.011Z,100162.53
2022-09-10T08:56:00.847Z,100154.75
2022-09-10T08:58:33.995Z,100161.34
2022-09-10T09:01:05.005Z,100156.09
2022-09-10T09:03:38.681Z,100155.88
2022-09-10T09:06:09.384Z,100166.81
2022-09-10T09:08:48.588Z,100167.28
2022-09-10T09:11:31.910Z,100160.59
2022-09-10T09:14:17.003Z,100164.19
2022-09-10T09:17:00.103Z,100165.31
2022-09-10T09:19:34.116Z,100168.47
2022-09-10T09:22:09.392Z,100173.53
2022-09-10T09:24:46.375Z,100172.34
2022-09-10T09:27:17.796Z,100162.88
2022-09-10T09:29:51.445Z,100163.03
2022-09-10T09:32:22.016Z,100159.69
2022-09-10T09:34:55.882Z,100154.66
2022-09-10T09:37:28.828Z,100153.81
2022-09-10T09:40:07.226Z,100155.78
2022-09-10T09:42:43.546Z,100147.44
2022-09-10T09:45:23.517Z,100145.19
2022-09-10T09:47:54.464Z,100148.19
2022-09-10T09:50:24.762Z,100137.06
2022-09-10T09:52:56.413Z,100136.81
2022-09-10T09:55:31.186Z,100129.38
2022-09-10T09:58:44.722Z,100132.38
2022-09-10T10:01:15.990Z,100131.00
2022-09-10T10:03:55.099Z,100126.34
2022-09-10T10:06:26.856Z,100120.84
2022-09-10T10:08:58.938Z,100128.66
2022-09-10T10:11:55.593Z,100129.06
2022-09-10T10:14:38.231Z,100124.44
2022-09-10T10:17:39.995Z,100114.88
2022-09-10T10:20:11.630Z,100123.59
2022-09-10T10:22:42.459Z,100115.75
2022-09-10T10:25:48.038Z,100107.22
2022-09-10T10:28:21.501Z,100100.09
2022-09-10T10:30:53.589Z,100101.00
2022-09-10T10:33:29.510Z,100088.50
2022-09-10T10:36:05.301Z,100087.19
2022-09-10T10:38:38.029Z,100078.47
2022-09-10T10:41:42.421Z,100084.81
2022-09-10T10:44:29.696Z,100080.75
2022-09-10T10:47:09.672Z,100084.38
2022-09-10T10:49:50.220Z,100092.03
2022-09-10T10:52:25.626Z,100089.50
2022-09-10T10:55:06.266Z,100087.13
2022-09-10T10:57:53.377Z,100095.63
2022-09-10T11:00:22.285Z,100087.94
2022-09-10T11:02:54.812Z,100092.38
2022-09-10T11:05:31.205Z,100074.81
2022-09-10T11:08:00.797Z,100074.63
2022-09-10T11:10:35.329Z,100065.06
2022-09-10T11:13:09.117Z,100071.84
2022-09-10T11:20:29.978Z,100089.06
2022-09-10T11:24:01.371Z,100086.34
2022-09-10T11:30:36.753Z,100078.38
2022-09-10T11:33:10.201Z,100074.53
2022-09-10T11:35:41.397Z,100074.06
2022-09-10T11:38:17.188Z,100070.31
2022-09-10T11:40:48.341Z,100073.50
2022-09-10T11:43:30.499Z,100067.91
2022-09-10T11:46:03.180Z,100068.56
2022-09-10T11:48:34.585Z,100065.34
2022-09-10T11:51:06.754Z,100063.06
2022-09-10T11:53:37.509Z,100053.47
2022-09-10T11:56:31.860Z,100055.16
2022-09-10T11:59:09.812Z,100047.56
2022-09-10T12:01:52.985Z,100039.91
2022-09-10T12:04:47.803Z,100034.34
2022-09-10T12:07:26.983Z,100037.59
2022-09-10T12:10:10.978Z,100037.53
2022-09-10T12:12:44.107Z,100035.66
2022-09-10T12:15:20.143Z,100037.16
2022-09-10T12:17:53.638Z,100041.00
2022-09-10T12:20:28.412Z,100034.22
2022-09-10T12:22:57.307Z,100030.22
2022-09-10T12:25:33.640Z,100022.88
2022-09-10T12:28:08.059Z,100027.38
2022-09-10T12:31:02.796Z,100020.56
2022-09-10T12:34:12.449Z,100025.25
2022-09-10T12:37:17.274Z,100024.25
2022-09-10T12:39:46.042Z,100010.81
2022-09-10T12:42:34.714Z,100021.84
2022-09-10T12:45:03.365Z,100015.69
2022-09-10T12:47:41.332Z,100008.78
2022-09-10T12:50:23.716Z,100012.94
2022-09-10T12:53:05.016Z,100007.84
2022-09-10T12:55:42.105Z,100010.16
2022-09-10T12:58:18.531Z,100004.19
2022-09-10T13:00:59.533Z,100014.97
2022-09-10T13:03:30.067Z,100008.97
2022-09-10T13:06:01.823Z,100006.38
2022-09-10T13:08:33.361Z,100002.13
2022-09-10T13:11:16.450Z,100002.44
2022-09-10T13:13:46.855Z,100000.50
2022-09-10T13:16:18.391Z,100003.28
2022-09-10T13:18:48.382Z,100002.44
2022-09-10T13:21:55.702Z,100002.00
2022-09-10T13:25:01.113Z,99998.22
2022-09-10T13:27:43.033Z,99989.22
2022-09-10T13:30:17.641Z,99985.44
2022-09-10T13:32:50.143Z,99988.38
2022-09-10T13:35:43.334Z,99978.19
2022-09-10T13:38:28.081Z,99980.94
2022-09-10T13:41:24.662Z,99975.50
2022-09-10T13:44:17.013Z,99970.44
2022-09-10T13:46:48.101Z,99983.69
2022-09-10T13:49:20.903Z,99974.13
2022-09-10T13:51:52.984Z,99976.63
2022-09-10T13:54:31.250Z,99986.00
2022-09-10T13:57:04.911Z,99978.72
2022-09-10T13:59:34.994Z,99986.72
2022-09-10T14:02:03.718Z,99978.34
2022-09-10T14:04:35.715Z,99982.09
2022-09-10T14:07:07.029Z,99978.09
2022-09-10T14:09:37.799Z,99982.22
2022-09-10T14:12:09.145Z,99979.94
2022-09-10T14:14:40.305Z,99974.84
2022-09-10T14:17:12.026Z,99974.84
2022-09-10T14:19:44.639Z,99983.34
2022-09-10T14:22:17.453Z,99979.13
2022-09-10T14:24:51.531Z,99980.13
2022-09-10T14:27:28.220Z,99974.50
2022-09-10T14:29:58.335Z,99974.50
2022-09-10T14:32:31.900Z,99981.06
2022-09-10T14:35:03.599Z,99974.84
2022-09-10T14:37:38.253Z,99974.59
2022-09-10T14:40:18.539Z,99973.16
2022-09-10T14:42:48.383Z,99970.53
2022-09-10T14:45:39.540Z,99965.19
2022-09-10T14:48:41.060Z,99953.88
2022-09-10T14:51:18.065Z,99966.84
2022-09-10T14:53:47.738Z,99966.47
2022-09-10T14:56:24.170Z,99969.78
2022-09-10T14:58:58.454Z,99975.31
2022-09-10T15:01:27.341Z,99974.19
2022-09-10T15:03:56.120Z,99975.13
2022-09-10T15:06:26.771Z,99977.50
2022-09-10T15:08:57.310Z,99967.47
2022-09-10T15:11:27.671Z,99977.78
2022-09-10T15:13:58.892Z,99969.56
2022-09-10T15:16:27.760Z,99972.78
2022-09-10T15:18:57.852Z,99976.16
2022-09-10T15:21:26.711Z,99967.22
2022-09-10T15:23:55.326Z,99973.09
2022-09-10T15:26:23.920Z,99973.09
2022-09-10T15:28:53.893Z,99970.59
2022-09-10T15:31:23.403Z,99965.63
2022-09-10T15:33:52.680Z,99962.16
2022-09-10T15:36:22.510Z,99969.16
2022-09-10T15:38:54.306Z,99972.69
2022-09-10T15:41:23.155Z,99963.72
2022-09-10T15:43:51.440Z,99975.38
2022-09-10T15:46:24.453Z,99969.06
2022-09-10T15:48:53.317Z,99972.06
2022-09-10T15:51:24.191Z,99964.13
2022-09-10T15:53:54.420Z,99962.53
2022-09-10T15:56:24.957Z,99964.53
2022-09-10T15:58:55.186Z,99970.22
2022-09-10T16:01:26.356Z,99968.75
2022-09-10T16:03:56.473Z,99964.31
2022-09-10T16:06:27.446Z,99966.31
2022-09-10T16:08:57.863Z,99960.66
2022-09-10T16:11:26.354Z,99970.09
2022-09-10T16:13:55.133Z,99965.63
2022-09-10T16:16:27.304Z,99962.56
2022-09-10T16:18:56.281Z,99950.94
2022-09-10T16:21:26.262Z,99954.59
2022-09-10T16:23:56.887Z,99952.97
2022-09-10T16:26:27.963Z,99942.66
2022-09-10T16:28:57.928Z,99950.66
2022-09-10T16:31:29.098Z,99947.16
2022-09-10T16:33:59.821Z,99942.19
2022-09-10T16:36:28.564Z,99941.38
2022-09-10T16:38:58.472Z,99940.53
2022-09-10T16:41:27.388Z,99939.41
2022-09-10T16:43:58.374Z,99932.78
2022-09-10T16:46:29.070Z,99943.56
2022-09-10T16:48:58.641Z,99943.09
2022-09-10T16:51:28.849Z,99931.16
2022-09-10T16:54:01.814Z,99939.47
2022-09-10T16:56:31.565Z,99931.69
2022-09-10T16:59:00.228Z,99935.19
2022-09-10T17:01:31.179Z,99931.25
2022-09-10T17:04:00.325Z,99930.25
2022-09-10T17:06:29.994Z,99931.25
2022-09-10T17:09:00.163Z,99941.41
2022-09-10T17:11:31.575Z,99935.25
2022-09-10T17:14:02.500Z,99940.75
2022-09-10T17:16:33.891Z,99926.44
2022-09-10T17:19:04.024Z,99935.59
2022-09-10T17:21:34.651Z,99932.75
2022-09-10T17:24:05.019Z,99935.09
2022-09-10T17:26:34.323Z,99934.75
2022-09-10T17:29:04.828Z,99935.09
2022-09-10T17:31:34.974Z,99941.63
2022-09-10T17:34:03.914Z,99933.78
2022-09-10T17:36:33.669Z,99932.97
2022-09-10T17:39:02.435Z,99939.09
2022-09-10T17:41:31.736Z,99937.09
2022-09-10T17:44:00.828Z,99936.28
2022-09-10T17:46:31.291Z,99936.97
2022-09-10T17:49:02.093Z,99938.31
2022-09-10T17:51:32.004Z,99930.88
2022-09-10T17:54:02.618Z,99927.38
2022-09-10T17:56:31.685Z,99930.38
2022-09-10T17:59:02.524Z,99932.38
2022-09-10T18:01:32.814Z,99931.38
2022-09-10T18:04:04.231Z,99928.06
2022-09-10T18:06:36.294Z,99931.72
2022-09-10T18:09:05.901Z,99933.38
2022-09-10T18:11:37.122Z,99932.56
2022-09-10T18:14:06.033Z,99922.75
2022-09-10T18:16:36.431Z,99922.75
2022-09-10T18:19:13.931Z,99931.38
2022-09-10T18:21:44.490Z,99925.25
2022-09-10T18:24:18.272Z,99926.41
2022-09-10T18:26:48.599Z,99929.25
2022-09-10T18:29:17.778Z,99931.09
2022-09-10T18:31:48.310Z,99926.41
2022-09-10T18:34:23.216Z,99932.38
2022-09-10T18:36:54.940Z,99935.38
2022-09-10T18:39:23.926Z,99936.56
2022-09-10T18:41:53.019Z,99935.56
2022-09-10T18:44:23.021Z,99943.72
2022-09-10T18:46:53.116Z,99939.22
2022-09-10T18:49:23.497Z,99943.53
2022-09-10T18:51:52.484Z,99936.91
2022-09-10T18:54:22.519Z,99931.59
2022-09-10T18:56:53.409Z,99932.91
2022-09-10T18:59:23.643Z,99930.59
2022-09-10T19:01:53.891Z,99926.78
2022-09-10T19:04:26.022Z,99924.75
2022-09-10T19:06:54.930Z,99927.41
2022-09-10T19:09:24.882Z,99921.94
2022-09-10T19:11:54.915Z,99920.47
2022-09-10T19:14:26.277Z,99921.78
2022-09-10T19:16:56.447Z,99924.44
2022-09-10T19:19:28.679Z,99914.81
2022-09-10T19:21:59.547Z,99917.94
2022-09-10T19:24:50.947Z,99917.81
2022-09-10T19:27:18.234Z,99917.13
2022-09-10T19:29:47.400Z,99912.47
2022-09-10T19:32:17.227Z,99911.28
2022-09-10T19:34:47.046Z,99901.47
2022-09-10T19:37:15.776Z,99905.78
2022-09-10T19:39:44.602Z,99899.81
2022-09-10T19:42:13.713Z,99901.47
2022-09-10T19:44:42.362Z,99900.00
2022-09-10T19:47:10.923Z,99904.78
2022-09-10T19:49:39.240Z,99899.19
2022-09-10T19:52:11.171Z,99897.16
2022-09-10T19:54:39.937Z,99902.31
2022-09-10T19:57:08.573Z,99895.34
2022-09-10T19:59:37.162Z,99894.69
2022-09-10T20:02:05.870Z,99889.91
2022-09-10T20:04:34.247Z,99893.22
2022-09-10T20:07:05.518Z,99893.22
2022-09-10T20:09:39.708Z,99886.06
2022-09-10T20:12:09.381Z,99885.91
2022-09-10T20:14:38.232Z,99886.72
2022-09-10T20:17:06.926Z,99876.91
2022-09-10T20:19:35.265Z,99885.72
2022-09-10T20:22:03.823Z,99873.44
2022-09-10T20:24:32.517Z,99876.63
2022-09-10T20:27:02.437Z,99876.97
2022-09-10T20:29:33.004Z,99881.44
2022-09-10T20:32:01.272Z,99875.13
2022-09-10T20:34:29.593Z,99877.78
2022-09-10T20:36:58.195Z,99878.44
2022-09-10T20:39:27.063Z,99872.66
2022-09-10T20:41:55.625Z,99876.66
2022-09-10T20:44:26.238Z,99869.69
2022-09-10T20:46:54.457Z,99870.66
2022-09-10T20:49:23.069Z,99862.19
2022-09-10T20:51:52.548Z,99872.19
2022-09-10T20:54:21.124Z,99866.69
2022-09-10T20:56:49.855Z,99868.53
2022-09-10T20:59:19.342Z,99871.00
2022-09-10T21:01:50.960Z,99865.03
2022-09-10T21:04:19.985Z,99862.72
2022-09-10T21:06:48.570Z,99866.38
2022-09-10T21:09:17.571Z,99865.56
2022-09-10T21:11:46.463Z,99861.59
2022-09-10T21:14:15.434Z,99860.91
2022-09-10T21:16:43.712Z,99856.78
2022-09-10T21:19:15.203Z,99857.13
2022-09-10T21:21:45.183Z,99849.50
2022-09-10T21:24:14.701Z,99855.31
2022-09-10T21:26:44.276Z,99856.16
2022-09-10T21:29:14.480Z,99847.53
2022-09-10T21:31:43.549Z,99843.53
2022-09-10T21:34:14.027Z,99846.88
2022-09-10T21:36:43.870Z,99856.50
2022-09-10T21:39:15.184Z,99853.97
2022-09-10T21:41:45.219Z,99854.81
2022-09-10T21:44:15.269Z,99852.00
2022-09-10T21:46:43.887Z,99855.50
2022-09-10T21:49:14.300Z,99851.50
2022-09-10T21:51:42.828Z,99843.88
2022-09-10T21:54:15.486Z,99848.53
2022-09-10T21:56:44.105Z,99843.75
2022-09-10T21:59:14.780Z,99840.25
2022-09-10T22:01:43.864Z,99840.75
2022-09-10T22:04:17.855Z,99846.06
2022-09-10T22:06:51.812Z,99843.41
2022-09-10T22:09:21.406Z,99839.78
2022-09-10T22:11:52.058Z,99841.75
2022-09-10T22:14:22.108Z,99845.59
2022-09-10T22:16:50.475Z,99840.44
2022-09-10T22:19:21.789Z,99841.63
2022-09-10T22:21:51.039Z,99836.47
2022-09-10T22:24:19.616Z,99848.72
2022-09-10T22:26:48.438Z,99838.31
2022-09-10T22:29:18.286Z,99838.78
2022-09-10T22:31:47.314Z,99832.47
2022-09-10T22:34:16.945Z,99833.66
2022-09-10T22:36:48.533Z,99834.66
2022-09-10T22:39:18.770Z,99831.66
2022-09-10T22:41:47.752Z,99828.34
2022-09-10T22:44:17.808Z,99840.63
2022-09-10T22:46:46.185Z,99830.69
2022-09-10T22:49:16.164Z,99823.03
2022-09-10T22:51:46.347Z,99827.22
2022-09-10T22:54:15.308Z,99826.03
2022-09-10T22:56:44.634Z,99823.56
2022-09-10T22:59:14.766Z,99825.56
2022-09-10T23:01:47.436Z,99819.91
2022-09-10T23:04:16.458Z,99816.25
2022-09-10T23:06:46.461Z,99817.41
2022-09-10T23:09:17.462Z,99812.75
2022-09-10T23:11:46.175Z,99812.63
2022-09-10T23:14:17.814Z,99812.44
2022-09-10T23:16:48.300Z,99806.78
2022-09-10T23:19:18.881Z,99810.13
2022-09-10T23:21:51.206Z,99808.47
2022-09-10T23:24:22.008Z,99809.31
2022-09-10T23:26:50.831Z,99804.81
2022-09-10T23:29:21.604Z,99803.81
2022-09-10T23:31:52.963Z,99801.50
2022-09-10T23:34:22.234Z,99793.53
2022-09-10T23:36:53.187Z,99792.38
2022-09-10T23:39:22.811Z,99792.38
2022-09-10T23:41:52.467Z,99792.06
2022-09-10T23:44:21.186Z,99797.84
2022-09-10T23:46:50.000Z,99793.72
2022-09-10T23:49:18.642Z,99790.59
2022-09-10T23:51:47.205Z,99798.69
2022-09-10T23:54:17.330Z,99791.91
2022-09-10T23:56:45.947Z,99794.56
2022-09-10T23:59:15.364Z,99782.09
